Time;durP1;ratioP1;P1;durP2;ratioP2;P2;SDS_P1;SDS_P2;PMS_P1;PMS_P2;Temp;Humidity;BMP_temperature;BMP_pressure;BME280_temperature;BME280_humidity;BME280_pressure;Samples;Min_cycle;Max_cycle;Signal;HPM_P1;HPM_P2
2023/09/28 00:00:36;;;;;;;30.17;5.55;;;17.30;99.90;;;;;;5012631;28;20098;-58
2023/09/28 00:03:08;;;;;;;23.70;5.70;;;17.30;99.90;;;;;;5035290;28;20122;-59
2023/09/28 00:05:35;;;;;;;30.50;5.30;;;17.30;99.90;;;;;;4710292;28;10000972;-61
2023/09/28 00:08:02;;;;;;;28.23;4.93;;;17.40;99.90;;;;;;5047274;28;20041;-57
2023/09/28 00:10:30;;;;;;;26.38;4.35;;;17.30;99.90;;;;;;5053682;28;20459;-58
2023/09/28 00:12:57;;;;;;;28.75;5.80;;;17.30;99.90;;;;;;5049379;28;20047;-57
2023/09/28 00:15:24;;;;;;;33.45;5.75;;;17.30;99.90;;;;;;5056995;28;20079;-57
2023/09/28 00:17:52;;;;;;;23.73;4.70;;;17.30;99.90;;;;;;5048659;28;20067;-59
2023/09/28 00:20:20;;;;;;;22.17;5.35;;;17.10;99.90;;;;;;5056867;28;20080;-57
2023/09/28 00:22:51;;;;;;;34.35;5.85;;;17.20;99.90;;;;;;5067370;28;20040;-58
2023/09/28 00:25:19;;;;;;;16.20;3.95;;;17.10;99.90;;;;;;5055426;28;20516;-55
2023/09/28 00:27:47;;;;;;;31.02;5.95;;;17.10;99.90;;;;;;5047948;28;20057;-57
2023/09/28 00:30:20;;;;;;;28.10;5.43;;;17.00;99.90;;;;;;5042154;28;20041;-58
2023/09/28 00:32:47;;;;;;;27.98;7.57;;;17.00;99.90;;;;;;5047735;28;20049;-57
2023/09/28 00:35:14;;;;;;;21.55;4.38;;;16.90;99.90;;;;;;5032473;28;20109;-58
2023/09/28 00:37:41;;;;;;;25.83;5.30;;;16.90;99.90;;;;;;5049347;28;20071;-58
2023/09/28 00:40:27;;;;;;;40.75;5.80;;;16.90;99.90;;;;;;5055059;28;20051;-57
2023/09/28 00:42:55;;;;;;;35.28;6.40;;;16.80;99.90;;;;;;5068872;28;20131;-58
2023/09/28 00:45:23;;;;;;;20.70;5.07;;;16.80;99.90;;;;;;5058869;28;20095;-58
2023/09/28 00:48:09;;;;;;;27.88;4.88;;;16.80;99.90;;;;;;5054336;28;20087;-58
2023/09/28 00:50:36;;;;;;;28.50;4.90;;;16.80;99.90;;;;;;5041410;28;20076;-59
2023/09/28 00:53:06;;;;;;;25.77;5.30;;;16.70;99.90;;;;;;5072109;28;20052;-58
2023/09/28 00:55:33;;;;;;;23.23;4.55;;;16.70;99.90;;;;;;5055078;28;20067;-57
2023/09/28 00:58:01;;;;;;;32.53;5.10;;;16.70;99.90;;;;;;5066681;28;20132;-56
2023/09/28 01:00:29;;;;;;;27.92;4.93;;;16.70;99.90;;;;;;5062630;28;20048;-57
2023/09/28 01:02:57;;;;;;;28.27;5.72;;;16.70;99.90;;;;;;5068409;28;20118;-58
2023/09/28 01:05:33;;;;;;;24.65;4.50;;;16.70;99.90;;;;;;5067242;28;20052;-57
2023/09/28 01:08:07;;;;;;;30.90;5.13;;;16.60;99.90;;;;;;5055465;28;20048;-57
2023/09/28 01:10:35;;;;;;;;;;;16.60;99.90;;;;;;5058596;28;20049;-55
2023/09/28 01:13:12;;;;;;;29.73;5.10;;;16.60;99.90;;;;;;5038798;28;19931;-58
2023/09/28 01:15:46;;;;;;;25.25;5.75;;;16.60;99.90;;;;;;5039249;28;20053;-57
2023/09/28 01:18:17;;;;;;;;;;;16.60;99.90;;;;;;5051882;28;20530;-59
2023/09/28 01:20:48;;;;;;;26.23;4.88;;;16.60;99.90;;;;;;5041164;28;19943;-57
2023/09/28 01:23:15;;;;;;;26.50;3.78;;;16.60;99.90;;;;;;5057267;28;20049;-58
2023/09/28 01:25:46;;;;;;;20.60;3.92;;;16.60;99.90;;;;;;5037596;28;20423;-58
2023/09/28 01:28:13;;;;;;;23.95;4.57;;;16.60;99.90;;;;;;5063249;28;20053;-59
2023/09/28 01:30:40;;;;;;;22.27;4.93;;;16.70;99.90;;;;;;5049041;28;20439;-57
2023/09/28 01:33:09;;;;;;;25.67;4.45;;;16.70;99.90;;;;;;5061193;28;20085;-56
2023/09/28 01:35:36;;;;;;;28.73;6.43;;;16.70;99.90;;;;;;5051906;28;20559;-58
2023/09/28 01:38:12;;;;;;;27.20;5.50;;;16.70;99.90;;;;;;5062703;28;20045;-61
2023/09/28 01:40:40;;;;;;;28.65;5.18;;;16.70;99.90;;;;;;5037738;28;20049;-57
2023/09/28 01:43:07;;;;;;;27.45;4.72;;;16.60;99.90;;;;;;5058342;28;20041;-59
2023/09/28 01:45:34;;;;;;;22.13;4.78;;;16.60;99.90;;;;;;5050497;28;20123;-59
2023/09/28 01:48:03;;;;;;;28.73;5.80;;;16.60;99.90;;;;;;5058159;28;20045;-61
2023/09/28 01:50:31;;;;;;;23.80;4.25;;;16.50;99.90;;;;;;5030851;28;20045;-57
2023/09/28 01:52:58;;;;;;;25.88;5.35;;;16.50;99.90;;;;;;5062320;28;20496;-56
2023/09/28 01:55:25;;;;;;;19.02;4.10;;;16.50;99.90;;;;;;5050420;28;20098;-56
2023/09/28 01:57:52;;;;;;;26.58;4.95;;;16.50;99.90;;;;;;5062744;28;20458;-57
2023/09/28 02:00:20;;;;;;;28.20;5.93;;;16.50;99.90;;;;;;5070919;28;20098;-57
2023/09/28 02:02:47;;;;;;;30.05;4.85;;;16.50;99.90;;;;;;5065576;28;20049;-57
2023/09/28 02:05:18;;;;;;;19.38;3.80;;;16.50;99.90;;;;;;5051903;28;20041;-57
2023/09/28 02:07:45;;;;;;;20.33;4.05;;;16.50;99.90;;;;;;5054506;28;20049;-57
2023/09/28 02:10:12;;;;;;;25.10;4.00;;;16.60;99.90;;;;;;5059969;28;20132;-58
2023/09/28 02:12:39;;;;;;;20.90;3.92;;;16.60;99.90;;;;;;5036274;28;20052;-57
2023/09/28 02:15:08;;;;;;;29.63;5.18;;;16.70;99.90;;;;;;5064940;28;20066;-60
2023/09/28 02:17:35;;;;;;;24.95;4.28;;;16.70;99.90;;;;;;5065901;28;20041;-56
2023/09/28 02:20:08;;;;;;;27.83;4.28;;;16.70;99.90;;;;;;5057172;28;20052;-56
2023/09/28 02:22:41;;;;;;;26.45;5.05;;;16.70;99.90;;;;;;5047148;28;20045;-56
2023/09/28 02:25:08;;;;;;;36.03;6.07;;;16.70;99.90;;;;;;5046642;28;20049;-58
2023/09/28 02:27:36;;;;;;;24.67;3.92;;;16.80;99.90;;;;;;5053402;28;20069;-59
2023/09/28 02:30:04;;;;;;;22.58;3.95;;;16.80;99.90;;;;;;5060478;28;20098;-59
2023/09/28 02:32:33;;;;;;;37.33;7.43;;;16.80;99.90;;;;;;5053254;28;20083;-59
2023/09/28 02:35:00;;;;;;;17.35;3.78;;;16.80;99.90;;;;;;5058515;28;20400;-58
2023/09/28 02:37:27;;;;;;;21.00;4.40;;;16.90;99.90;;;;;;5068027;28;20055;-58
2023/09/28 02:39:53;;;;;;;22.17;4.00;;;16.90;99.90;;;;;;5060867;28;20500;-59
2023/09/28 02:42:21;;;;;;;28.65;5.95;;;16.90;99.90;;;;;;5049778;28;20053;-60
2023/09/28 02:44:48;;;;;;;20.92;3.40;;;16.90;99.90;;;;;;5057125;28;20228;-57
2023/09/28 02:47:15;;;;;;;22.95;4.03;;;16.90;99.90;;;;;;5069922;28;20486;-57
2023/09/28 02:49:42;;;;;;;26.23;5.38;;;16.90;99.90;;;;;;5045534;28;20049;-57
2023/09/28 02:52:10;;;;;;;23.45;4.70;;;16.90;99.90;;;;;;5049903;28;20044;-57
2023/09/28 02:54:37;;;;;;;16.27;3.78;;;16.90;99.90;;;;;;5053832;28;20096;-57
2023/09/28 02:57:04;;;;;;;29.58;5.80;;;16.90;99.90;;;;;;5051165;28;20045;-57
2023/09/28 02:59:31;;;;;;;16.58;3.60;;;16.90;99.90;;;;;;5059550;28;20041;-58
2023/09/28 03:01:58;;;;;;;21.30;3.90;;;16.90;99.90;;;;;;5058942;28;20048;-57
2023/09/28 03:04:25;;;;;;;18.83;4.15;;;16.90;99.90;;;;;;5053012;28;20484;-58
2023/09/28 03:06:52;;;;;;;22.38;4.43;;;16.90;99.90;;;;;;5054271;28;20049;-57
2023/09/28 03:09:19;;;;;;;19.15;3.53;;;16.80;99.90;;;;;;5063971;28;20037;-58
2023/09/28 03:11:47;;;;;;;22.48;4.63;;;16.80;99.90;;;;;;5062002;28;20131;-57
2023/09/28 03:14:13;;;;;;;21.77;4.53;;;16.70;99.90;;;;;;5060091;28;20041;-56
2023/09/28 03:16:40;;;;;;;13.02;3.22;;;16.70;99.90;;;;;;5057278;28;20140;-57
2023/09/28 03:19:08;;;;;;;24.65;4.50;;;16.70;99.90;;;;;;5067393;28;20040;-58
2023/09/28 03:21:35;;;;;;;24.83;3.95;;;16.60;99.90;;;;;;5058235;28;20056;-61
2023/09/28 03:24:03;;;;;;;22.42;4.20;;;16.60;99.90;;;;;;5066306;28;20140;-58
2023/09/28 03:26:33;;;;;;;17.25;3.20;;;16.50;99.90;;;;;;5057886;28;20067;-60
2023/09/28 03:29:00;;;;;;;19.83;3.25;;;16.50;99.90;;;;;;5049562;28;20049;-57
2023/09/28 03:31:27;;;;;;;25.13;4.35;;;16.40;99.90;;;;;;5060007;28;20526;-57
2023/09/28 03:33:54;;;;;;;26.65;4.25;;;16.50;99.90;;;;;;5048798;28;20045;-57
2023/09/28 03:36:22;;;;;;;16.05;3.55;;;16.40;99.90;;;;;;5049418;28;20044;-57
2023/09/28 03:38:48;;;;;;;11.60;3.33;;;16.40;99.90;;;;;;5064214;28;20048;-54
2023/09/28 03:41:15;;;;;;;16.83;3.40;;;16.40;99.90;;;;;;5055806;28;20103;-55
2023/09/28 03:43:42;;;;;;;21.85;4.25;;;16.40;99.90;;;;;;5068693;28;20041;-56
2023/09/28 03:46:09;;;;;;;17.48;3.92;;;16.40;99.90;;;;;;5055056;28;20063;-59
2023/09/28 03:48:36;;;;;;;21.00;4.32;;;16.40;99.90;;;;;;5066775;28;20047;-54
2023/09/28 03:51:03;;;;;;;18.70;3.55;;;16.40;99.90;;;;;;5060225;28;20118;-58
2023/09/28 03:53:31;;;;;;;13.52;3.60;;;16.30;99.90;;;;;;5064551;28;20048;-58
2023/09/28 03:55:58;;;;;;;16.52;3.58;;;16.40;99.90;;;;;;5058490;28;20443;-58
2023/09/28 03:58:25;;;;;;;16.58;2.95;;;16.40;99.90;;;;;;5062604;28;20135;-57
2023/09/28 04:00:52;;;;;;;17.33;3.03;;;16.40;99.90;;;;;;5062705;28;20546;-56
2023/09/28 04:03:18;;;;;;;20.10;3.60;;;16.40;99.90;;;;;;5059660;28;20049;-56
2023/09/28 04:05:46;;;;;;;22.67;3.45;;;16.40;99.90;;;;;;5043768;28;20041;-56
2023/09/28 04:08:12;;;;;;;26.95;3.45;;;16.40;99.90;;;;;;5056710;28;20051;-58
2023/09/28 04:10:39;;;;;;;27.05;4.95;;;16.40;99.90;;;;;;5065566;28;20486;-59
2023/09/28 04:13:06;;;;;;;17.42;3.15;;;16.50;99.90;;;;;;5059045;28;20041;-60
2023/09/28 04:15:33;;;;;;;14.73;3.63;;;16.40;99.90;;;;;;5048074;28;20068;-58
2023/09/28 04:18:00;;;;;;;14.68;3.88;;;16.40;99.90;;;;;;5056542;28;20351;-60
2023/09/28 04:20:27;;;;;;;18.17;5.32;;;16.50;99.90;;;;;;5071831;28;20058;-59
2023/09/28 04:22:54;;;;;;;18.30;4.65;;;16.50;99.90;;;;;;5056360;28;20057;-56
2023/09/28 04:25:21;;;;;;;17.20;3.42;;;16.50;99.90;;;;;;5066707;28;20372;-60
2023/09/28 04:27:49;;;;;;;16.77;3.17;;;16.50;99.90;;;;;;5062504;28;20255;-59
2023/09/28 04:30:16;;;;;;;16.20;3.15;;;16.50;99.90;;;;;;5030150;28;20049;-58
2023/09/28 04:32:45;;;;;;;22.42;3.50;;;16.50;99.90;;;;;;5040546;28;20503;-56
2023/09/28 04:35:13;;;;;;;20.63;4.30;;;16.40;99.90;;;;;;5028652;28;20051;-58
2023/09/28 04:37:40;;;;;;;16.25;4.07;;;16.40;99.90;;;;;;5051243;28;20048;-59
2023/09/28 04:40:08;;;;;;;15.93;3.88;;;16.40;99.90;;;;;;5051780;28;20615;-58
2023/09/28 04:42:36;;;;;;;16.50;3.03;;;16.40;99.90;;;;;;5033029;28;20356;-58
2023/09/28 04:45:03;;;;;;;20.05;3.33;;;16.30;99.90;;;;;;5062088;28;20437;-59
2023/09/28 04:47:32;;;;;;;15.38;3.83;;;16.30;99.90;;;;;;5063237;28;20120;-59
2023/09/28 04:50:00;;;;;;;15.25;3.40;;;16.40;99.90;;;;;;5055123;28;20076;-60
2023/09/28 04:52:27;;;;;;;16.08;2.92;;;16.40;99.90;;;;;;5049674;28;20158;-58
2023/09/28 04:54:54;;;;;;;17.50;2.83;;;16.30;99.90;;;;;;5057166;28;20095;-58
2023/09/28 04:57:21;;;;;;;17.80;2.70;;;16.40;99.90;;;;;;5049974;28;20053;-59
2023/09/28 04:59:47;;;;;;;12.68;3.58;;;16.30;99.90;;;;;;5056130;28;20044;-55
2023/09/28 05:02:17;;;;;;;24.60;3.78;;;16.30;99.90;;;;;;5049774;28;20053;-58
2023/09/28 05:04:44;;;;;;;11.02;3.33;;;16.30;99.90;;;;;;5044409;28;20092;-55
2023/09/28 05:07:11;;;;;;;17.63;2.28;;;16.20;99.90;;;;;;5055246;28;20192;-59
2023/09/28 05:09:38;;;;;;;12.55;3.10;;;16.30;99.90;;;;;;5059674;28;20102;-58
2023/09/28 05:12:05;;;;;;;17.13;2.75;;;16.30;99.90;;;;;;5047321;28;20048;-55
2023/09/28 05:14:32;;;;;;;12.82;2.92;;;16.30;99.90;;;;;;5052990;28;20073;-56
2023/09/28 05:16:59;;;;;;;14.98;2.47;;;16.30;99.90;;;;;;5052505;28;20049;-58
2023/09/28 05:19:27;;;;;;;9.02;2.83;;;16.20;99.90;;;;;;5033725;28;20048;-58
2023/09/28 05:21:54;;;;;;;14.05;2.97;;;16.20;99.90;;;;;;5031391;28;20143;-56
2023/09/28 05:24:20;;;;;;;11.43;2.75;;;16.20;99.90;;;;;;5038685;28;20036;-58
2023/09/28 05:26:48;;;;;;;10.00;2.60;;;16.30;99.90;;;;;;5046357;28;20080;-59
2023/09/28 05:29:15;;;;;;;16.10;3.25;;;16.30;99.90;;;;;;5054166;28;20110;-58
2023/09/28 05:31:42;;;;;;;9.85;2.85;;;16.30;99.90;;;;;;5066010;28;20052;-58
2023/09/28 05:34:09;;;;;;;10.25;2.20;;;16.20;99.90;;;;;;5066134;28;20443;-58
2023/09/28 05:36:36;;;;;;;18.30;2.80;;;16.30;99.90;;;;;;5057203;28;20049;-58
2023/09/28 05:39:03;;;;;;;10.35;2.53;;;16.30;99.90;;;;;;5053103;28;20045;-58
2023/09/28 05:41:31;;;;;;;11.65;2.92;;;16.30;99.90;;;;;;5035493;28;20070;-61
2023/09/28 05:43:58;;;;;;;10.57;2.15;;;16.30;99.90;;;;;;5055299;28;20460;-57
2023/09/28 05:46:24;;;;;;;17.45;3.33;;;16.30;99.90;;;;;;5059379;28;20147;-59
2023/09/28 05:48:51;;;;;;;12.95;2.30;;;16.30;99.90;;;;;;5068488;28;20146;-57
2023/09/28 05:51:18;;;;;;;15.32;3.03;;;16.30;99.90;;;;;;5059738;28;20381;-58
2023/09/28 05:53:45;;;;;;;19.48;3.03;;;16.30;99.90;;;;;;5037326;28;20075;-59
2023/09/28 05:56:16;;;;;;;17.15;2.67;;;16.30;99.90;;;;;;5049314;28;20044;-57
2023/09/28 05:58:43;;;;;;;13.10;2.97;;;16.30;99.90;;;;;;5047579;28;20251;-57
2023/09/28 06:01:15;;;;;;;10.35;3.00;;;16.30;99.90;;;;;;5054124;28;20451;-59
2023/09/28 06:03:42;;;;;;;13.63;3.30;;;16.30;99.90;;;;;;5070070;28;20045;-55
2023/09/28 06:06:19;;;;;;;14.45;3.53;;;16.30;99.90;;;;;;5060783;28;20067;-58
2023/09/28 06:08:46;;;;;;;15.65;2.53;;;16.30;99.90;;;;;;5043707;28;20045;-58
2023/09/28 06:11:14;;;;;;;13.27;2.88;;;16.30;99.90;;;;;;5053843;28;20041;-60
2023/09/28 06:13:41;;;;;;;16.60;2.67;;;16.40;99.90;;;;;;5069965;28;20090;-58
2023/09/28 06:16:28;;;;;;;17.23;2.78;;;16.40;99.90;;;;;;5046645;28;20045;-57
2023/09/28 06:18:55;;;;;;;15.07;3.13;;;16.40;99.90;;;;;;5040535;28;20053;-57
2023/09/28 06:21:22;;;;;;;8.60;2.63;;;16.40;99.90;;;;;;5049185;28;20423;-58
2023/09/28 06:23:49;;;;;;;15.15;3.72;;;16.40;99.90;;;;;;5043489;28;20041;-58
2023/09/28 06:26:16;;;;;;;13.32;2.58;;;16.40;99.90;;;;;;5047495;28;20048;-60
2023/09/28 06:28:56;;;;;;;10.10;1.80;;;16.30;99.90;;;;;;5052547;28;20053;-56
2023/09/28 06:31:23;;;;;;;12.38;2.58;;;16.30;99.90;;;;;;5053851;28;20568;-58
2023/09/28 06:33:50;;;;;;;14.48;3.55;;;16.20;99.90;;;;;;5048847;28;20073;-59
2023/09/28 06:36:18;;;;;;;11.77;1.80;;;16.20;99.90;;;;;;5051385;28;20114;-59
2023/09/28 06:39:04;;;;;;;14.23;4.03;;;16.30;99.90;;;;;;5058072;28;20044;-59
2023/09/28 06:41:31;;;;;;;12.10;2.25;;;16.20;99.90;;;;;;5029661;28;20052;-59
2023/09/28 06:43:58;;;;;;;8.80;1.65;;;16.20;99.90;;;;;;5052576;28;20138;-60
2023/09/28 06:46:25;;;;;;;12.80;2.30;;;16.30;99.90;;;;;;5059630;28;20165;-59
2023/09/28 06:48:52;;;;;;;16.63;3.05;;;16.30;99.90;;;;;;5050358;28;20041;-56
2023/09/28 06:51:21;;;;;;;9.65;2.35;;;16.30;99.90;;;;;;5045443;28;20117;-55
2023/09/28 06:53:48;;;;;;;18.90;2.40;;;16.40;99.90;;;;;;5054607;28;20418;-60
2023/09/28 06:56:16;;;;;;;9.57;1.92;;;16.30;99.90;;;;;;5051895;28;20073;-60
2023/09/28 06:58:43;;;;;;;12.80;2.65;;;16.30;99.90;;;;;;5029642;28;20116;-60
2023/09/28 07:01:10;;;;;;;8.70;2.00;;;16.20;99.90;;;;;;5018489;28;20052;-60
2023/09/28 07:03:37;;;;;;;10.18;2.85;;;16.20;99.90;;;;;;5048042;28;20048;-60
2023/09/28 07:06:05;;;;;;;12.98;2.35;;;16.20;99.90;;;;;;5054665;28;20080;-60
2023/09/28 07:08:32;;;;;;;8.30;2.38;;;16.20;99.90;;;;;;5047565;28;20041;-60
2023/09/28 07:10:59;;;;;;;14.93;3.00;;;16.30;99.90;;;;;;5033759;28;20052;-60
2023/09/28 07:13:26;;;;;;;11.60;3.42;;;16.30;99.90;;;;;;5058027;28;20147;-60
2023/09/28 07:15:56;;;;;;;14.57;2.45;;;16.40;99.90;;;;;;5036794;28;20048;-60
2023/09/28 07:18:25;;;;;;;12.70;2.33;;;16.30;99.90;;;;;;5050067;28;20045;-63
2023/09/28 07:20:53;;;;;;;11.73;2.65;;;16.40;99.90;;;;;;5012072;28;20049;-59
2023/09/28 07:23:20;;;;;;;15.70;3.60;;;16.40;99.90;;;;;;5038996;28;20045;-59
2023/09/28 07:25:50;;;;;;;9.20;2.08;;;16.40;99.90;;;;;;5037518;28;20522;-58
2023/09/28 07:28:17;;;;;;;16.50;3.38;;;16.30;99.90;;;;;;5045066;28;20046;-58
2023/09/28 07:30:43;;;;;;;13.02;2.50;;;16.30;99.90;;;;;;5046933;28;20106;-58
2023/09/28 07:33:13;;;;;;;13.00;2.75;;;16.30;99.90;;;;;;5044536;28;20582;-58
2023/09/28 07:35:40;;;;;;;10.13;2.10;;;16.30;99.90;;;;;;5032867;28;20041;-58
2023/09/28 07:38:07;;;;;;;11.45;2.42;;;16.40;99.90;;;;;;5046217;28;20048;-59
2023/09/28 07:40:34;;;;;;;12.95;2.35;;;16.40;99.90;;;;;;5045551;28;20102;-59
2023/09/28 07:43:14;;;;;;;17.02;3.03;;;16.40;99.90;;;;;;5046163;28;20051;-59
2023/09/28 07:45:41;;;;;;;8.93;2.58;;;16.40;99.90;;;;;;5057667;28;20131;-59
2023/09/28 07:48:08;;;;;;;9.90;2.45;;;16.30;99.90;;;;;;5041959;28;20045;-60
2023/09/28 07:50:35;;;;;;;19.08;2.85;;;16.30;99.90;;;;;;5049023;28;20056;-60
2023/09/28 07:53:02;;;;;;;15.90;3.88;;;16.30;99.90;;;;;;5040758;28;20098;-60
2023/09/28 07:55:29;;;;;;;17.92;4.60;;;16.30;99.90;;;;;;5040396;28;20049;-57
2023/09/28 07:57:56;;;;;;;11.45;2.30;;;16.30;99.90;;;;;;5033517;28;20057;-58
2023/09/28 08:00:43;;;;;;;20.10;2.95;;;16.40;99.90;;;;;;5036066;28;20151;-59
2023/09/28 08:03:10;;;;;;;11.95;2.90;;;16.30;99.90;;;;;;5042207;28;20053;-59
2023/09/28 08:05:37;;;;;;;12.27;2.40;;;16.30;99.90;;;;;;5050463;28;20079;-60
2023/09/28 08:08:05;;;;;;;14.52;3.63;;;16.30;99.90;;;;;;5035268;28;20132;-59
2023/09/28 08:10:43;;;;;;;16.40;2.75;;;16.40;99.90;;;;;;5040112;28;20073;-60
2023/09/28 08:13:10;;;;;;;15.55;3.00;;;16.40;99.90;;;;;;5037449;28;20045;-59
2023/09/28 08:15:41;;;;;;;22.17;3.03;;;16.40;99.90;;;;;;5058584;28;20048;-60
2023/09/28 08:18:08;;;;;;;14.38;3.63;;;16.40;99.90;;;;;;5043031;28;20044;-60
2023/09/28 08:20:36;;;;;;;10.55;3.20;;;16.30;99.90;;;;;;5051881;28;20060;-59
2023/09/28 08:23:04;;;;;;;12.40;3.05;;;16.40;99.90;;;;;;5040713;28;20049;-60
2023/09/28 08:25:32;;;;;;;17.55;3.50;;;16.50;99.90;;;;;;5034325;28;20045;-59
2023/09/28 08:27:59;;;;;;;16.10;3.20;;;16.50;99.90;;;;;;5036787;28;20050;-61
2023/09/28 08:30:26;;;;;;;10.35;2.42;;;16.50;99.90;;;;;;5038263;28;20049;-60
2023/09/28 08:32:53;;;;;;;20.33;3.45;;;16.60;99.90;;;;;;5063160;28;20048;-61
2023/09/28 08:35:21;;;;;;;15.93;3.60;;;16.60;99.90;;;;;;5059407;28;20049;-60
2023/09/28 08:37:48;;;;;;;14.90;3.28;;;16.70;99.90;;;;;;5049142;28;20049;-60
2023/09/28 08:40:15;;;;;;;13.75;3.50;;;16.80;99.90;;;;;;5047534;28;20463;-58
2023/09/28 08:42:43;;;;;;;15.45;3.08;;;16.80;99.90;;;;;;5059386;28;20059;-58
2023/09/28 08:45:14;;;;;;;24.65;3.97;;;16.90;99.90;;;;;;5049800;28;20858;-60
2023/09/28 08:47:51;;;;;;;15.43;3.00;;;16.90;99.90;;;;;;5066919;28;20090;-58
2023/09/28 08:50:22;;;;;;;12.90;3.47;;;16.90;99.90;;;;;;5064885;28;20036;-59
2023/09/28 08:52:50;;;;;;;19.48;4.72;;;17.00;99.90;;;;;;5057474;28;20557;-59
2023/09/28 08:55:17;;;;;;;15.32;3.28;;;17.00;99.90;;;;;;5065723;28;20106;-59
2023/09/28 08:57:44;;;;;;;15.73;2.60;;;17.00;99.90;;;;;;5038230;28;20408;-59
2023/09/28 09:00:14;;;;;;;15.52;3.67;;;17.10;99.90;;;;;;5056007;28;20411;-59
2023/09/28 09:02:42;;;;;;;11.88;2.78;;;17.10;99.90;;;;;;5038545;28;20082;-60
2023/09/28 09:05:12;;;;;;;16.80;4.25;;;17.10;99.90;;;;;;5052045;28;20067;-60
2023/09/28 09:07:41;;;;;;;23.63;3.35;;;17.10;99.90;;;;;;5052403;28;20128;-59
2023/09/28 09:10:13;;;;;;;14.77;3.17;;;17.10;99.90;;;;;;5070327;28;20052;-59
2023/09/28 09:12:40;;;;;;;13.93;2.97;;;17.00;99.90;;;;;;5063164;28;20056;-59
2023/09/28 09:15:07;;;;;;;13.85;4.07;;;17.00;99.90;;;;;;5051334;28;20068;-59
2023/09/28 09:17:35;;;;;;;21.58;4.47;;;17.10;99.90;;;;;;5055631;28;20068;-60
2023/09/28 09:20:08;;;;;;;16.55;3.30;;;17.20;99.90;;;;;;5068458;28;20048;-59
2023/09/28 09:22:35;;;;;;;21.33;3.55;;;17.30;99.90;;;;;;5066580;28;20052;-60
2023/09/28 09:25:21;;;;;;;19.80;3.28;;;17.40;99.90;;;;;;5016422;28;20052;-60
2023/09/28 09:27:50;;;;;;;22.67;4.10;;;17.50;99.90;;;;;;5052224;28;20057;-59
2023/09/28 09:30:17;;;;;;;14.43;3.30;;;17.50;99.90;;;;;;5055330;28;20045;-59
2023/09/28 09:32:44;;;;;;;17.25;3.90;;;17.60;99.90;;;;;;5054662;28;20053;-59
2023/09/28 09:35:11;;;;;;;15.70;4.05;;;17.70;99.90;;;;;;5069784;28;20507;-60
2023/09/28 09:37:42;;;;;;;21.90;3.88;;;17.70;99.90;;;;;;5060124;28;20511;-59
2023/09/28 09:40:12;;;;;;;15.05;3.42;;;17.80;99.90;;;;;;5063253;28;20045;-59
2023/09/28 09:42:41;;;;;;;12.70;3.25;;;17.90;99.90;;;;;;5065908;28;20131;-59
2023/09/28 09:45:11;;;;;;;14.90;3.80;;;17.90;99.90;;;;;;5055438;28;20087;-59
2023/09/28 09:47:47;;;;;;;19.35;3.25;;;18.00;99.90;;;;;;5054539;28;20492;-59
2023/09/28 09:50:15;;;;;;;22.05;4.88;;;18.00;99.90;;;;;;5064923;28;20443;-60
2023/09/28 09:52:45;;;;;;;13.32;3.00;;;18.00;99.90;;;;;;5048250;28;20145;-59
2023/09/28 09:55:12;;;;;;;14.32;3.38;;;18.00;99.90;;;;;;5036775;28;20067;-60
2023/09/28 09:57:43;;;;;;;21.15;3.60;;;18.00;99.90;;;;;;5056703;28;20556;-59
2023/09/28 10:00:15;;;;;;;17.38;4.55;;;18.10;99.90;;;;;;5044024;28;20053;-59
2023/09/28 10:02:43;;;;;;;17.10;3.38;;;18.20;99.90;;;;;;5061115;28;20373;-60
2023/09/28 10:05:09;;;;;;;15.27;3.38;;;18.30;99.90;;;;;;5042604;28;20061;-60
2023/09/28 10:07:37;;;;;;;16.20;4.05;;;18.30;99.90;;;;;;5034841;28;20055;-60
2023/09/28 10:10:14;;;;;;;13.32;3.80;;;18.30;99.90;;;;;;5048370;28;20044;-58
2023/09/28 10:12:41;;;;;;;16.17;3.90;;;18.30;99.90;;;;;;5050358;28;20045;-59
2023/09/28 10:15:08;;;;;;;22.33;3.47;;;18.20;99.90;;;;;;5058061;28;20478;-60
2023/09/28 10:17:35;;;;;;;18.52;3.80;;;18.20;99.90;;;;;;5051589;28;20045;-59
2023/09/28 10:20:02;;;;;;;14.23;2.78;;;18.20;99.90;;;;;;5058452;28;20066;-60
2023/09/28 10:22:30;;;;;;;30.20;4.75;;;18.20;99.90;;;;;;5052026;28;20131;-59
2023/09/28 10:24:56;;;;;;;25.02;4.85;;;18.20;99.90;;;;;;5044905;28;20059;-59
2023/09/28 10:27:23;;;;;;;31.05;5.82;;;18.20;99.90;;;;;;5048674;28;20083;-59
2023/09/28 10:29:50;;;;;;;25.58;4.43;;;18.20;99.90;;;;;;5048432;28;20507;-60
2023/09/28 10:32:29;;;;;;;13.18;4.10;;;18.20;99.90;;;;;;5052118;28;20109;-60
2023/09/28 10:35:27;;;;;;;16.23;4.57;;;18.20;99.90;;;;;;5053269;28;20060;-59
2023/09/28 10:38:13;;;;;;;18.58;3.65;;;18.20;99.90;;;;;;5044983;28;20053;-60
2023/09/28 10:40:41;;;;;;;20.40;3.47;;;18.30;99.90;;;;;;5056762;28;20048;-60
2023/09/28 10:43:43;;;;;;;19.95;4.35;;;18.40;99.90;;;;;;5049076;28;20049;-60
2023/09/28 10:46:10;;;;;;;22.83;4.57;;;18.40;99.90;;;;;;5050856;28;20049;-60
2023/09/28 10:48:46;;;;;;;16.70;3.88;;;18.40;99.90;;;;;;5050084;28;20122;-60
2023/09/28 10:51:16;;;;;;;23.42;4.30;;;18.50;99.90;;;;;;5052842;28;20508;-61
2023/09/28 10:53:44;;;;;;;20.73;3.88;;;18.40;99.90;;;;;;5068777;28;20048;-60
2023/09/28 10:56:11;;;;;;;22.45;4.43;;;18.50;99.90;;;;;;5056872;28;20068;-59
2023/09/28 10:58:38;;;;;;;18.40;4.80;;;18.60;99.90;;;;;;5056232;28;20136;-60
2023/09/28 11:01:06;;;;;;;11.77;3.55;;;18.60;99.90;;;;;;5037358;28;20048;-60
2023/09/28 11:03:34;;;;;;;23.20;6.20;;;18.60;99.90;;;;;;5068956;28;20074;-60
2023/09/28 11:06:05;;;;;;;14.30;3.35;;;18.70;99.90;;;;;;5055215;28;20044;-60
2023/09/28 11:08:32;;;;;;;17.27;4.15;;;18.60;99.90;;;;;;5069349;28;20044;-59
2023/09/28 11:11:01;;;;;;;19.50;3.15;;;18.70;99.90;;;;;;5064265;28;20064;-60
2023/09/28 11:13:29;;;;;;;17.75;3.90;;;18.70;99.90;;;;;;5050037;28;20088;-60
2023/09/28 11:15:57;;;;;;;20.58;4.38;;;18.80;99.90;;;;;;5035433;28;20052;-62
2023/09/28 11:18:25;;;;;;;18.90;4.03;;;19.00;99.90;;;;;;5064335;28;20054;-60
2023/09/28 11:20:55;;;;;;;23.08;4.53;;;19.10;99.90;;;;;;5052913;28;20055;-60
2023/09/28 11:23:22;;;;;;;18.65;4.40;;;19.10;99.90;;;;;;5063955;28;20053;-59
2023/09/28 11:25:49;;;;;;;20.80;5.57;;;19.20;99.90;;;;;;5063505;28;20036;-60
2023/09/28 11:28:16;;;;;;;21.60;4.90;;;19.20;99.90;;;;;;5052570;28;20060;-60
2023/09/28 11:30:43;;;;;;;17.83;3.88;;;19.20;99.90;;;;;;5020229;28;20044;-60
2023/09/28 11:33:10;;;;;;;16.67;4.72;;;19.20;99.90;;;;;;5059323;28;20043;-60
2023/09/28 11:35:39;;;;;;;30.15;5.60;;;19.20;99.90;;;;;;5047940;28;20049;-60
2023/09/28 11:38:09;;;;;;;19.02;5.22;;;19.20;99.90;;;;;;5059329;28;20041;-60
2023/09/28 11:40:37;;;;;;;18.95;4.10;;;19.10;99.90;;;;;;5050242;28;20131;-60
2023/09/28 11:43:07;;;;;;;13.52;4.30;;;19.00;99.90;;;;;;5056578;28;20137;-59
2023/09/28 11:45:35;;;;;;;26.88;4.80;;;18.90;99.90;;;;;;5067411;28;20041;-59
2023/09/28 11:48:09;;;;;;;14.70;3.60;;;19.00;99.90;;;;;;5056420;28;20461;-59
2023/09/28 11:50:37;;;;;;;20.08;3.55;;;19.00;99.90;;;;;;5048272;28;20052;-59
2023/09/28 11:53:08;;;;;;;23.15;4.70;;;19.00;99.90;;;;;;5035082;28;20480;-60
2023/09/28 11:55:36;;;;;;;24.98;4.72;;;19.10;99.90;;;;;;5031356;28;20053;-59
2023/09/28 11:58:05;;;;;;;20.95;5.03;;;19.10;99.90;;;;;;5046123;28;20072;-59
2023/09/28 12:00:31;;;;;;;25.05;4.82;;;19.10;99.90;;;;;;5028860;28;20056;-59
2023/09/28 12:02:59;;;;;;;16.77;5.60;;;19.10;99.90;;;;;;4699552;28;10000560;-59
2023/09/28 12:05:26;;;;;;;34.38;5.25;;;19.00;99.90;;;;;;5018389;28;20136;-59
2023/09/28 12:07:53;;;;;;;25.45;4.65;;;19.10;99.90;;;;;;5028678;28;20141;-59
2023/09/28 12:10:20;;;;;;;18.55;5.20;;;19.10;99.90;;;;;;5038490;28;20111;-59
2023/09/28 12:12:47;;;;;;;18.30;4.80;;;19.10;99.90;;;;;;5045614;28;20354;-59
2023/09/28 12:15:14;;;;;;;35.17;4.60;;;19.20;99.90;;;;;;5037427;28;20052;-58
2023/09/28 12:17:41;;;;;;;22.27;3.67;;;19.30;99.90;;;;;;5046062;28;20284;-58
2023/09/28 12:20:12;;;;;;;25.67;4.85;;;19.50;99.90;;;;;;5046613;28;20069;-60
2023/09/28 12:22:40;;;;;;;21.08;4.68;;;19.60;99.90;;;;;;5060340;28;20491;-62
2023/09/28 12:25:08;;;;;;;22.92;6.15;;;19.70;99.90;;;;;;5044940;28;20048;-59
2023/09/28 12:27:38;;;;;;;19.05;5.30;;;19.70;99.90;;;;;;5039843;28;20494;-59
2023/09/28 12:30:06;;;;;;;15.85;4.90;;;19.70;99.90;;;;;;5035285;28;20496;-59
2023/09/28 12:32:32;;;;;;;17.08;3.78;;;19.70;99.90;;;;;;5021545;28;20040;-60
2023/09/28 12:35:01;;;;;;;14.40;3.80;;;19.60;99.90;;;;;;5047895;28;20292;-59
2023/09/28 12:37:28;;;;;;;13.70;4.22;;;19.50;99.90;;;;;;5046269;28;20502;-59
2023/09/28 12:39:55;;;;;;;16.33;3.67;;;19.60;99.90;;;;;;5052659;28;20051;-59
2023/09/28 12:42:24;;;;;;;18.67;4.90;;;19.70;99.90;;;;;;5034159;28;20218;-58
2023/09/28 12:44:51;;;;;;;14.80;3.97;;;19.70;99.90;;;;;;5053632;28;20056;-60